Time,TemperatureF,DewpointF,PressureIn,WindDirection,WindDirectionDegrees,WindSpeedMPH,WindSpeedGustMPH,Humidity,HourlyPrecipIn,Conditions,Clouds,dailyrainin,SolarRadiationWatts/m^2,SoftwareType,DateUTC
2013-06-02 00:01:00,59.3,51.7,30.03,NW,313,6.9,6.9,76,0.00,CLR,,0.01,0.0,WeatherDisplay:10.37,2013-06-02 05:01:00,
2013-06-02 00:06:00,59.2,51.3,30.03,West,264,10.4,10.4,75,0.00,CLR,,0.01,0.0,WeatherDisplay:10.37,2013-06-02 05:06:00,
2013-06-02 00:11:00,59.1,51.2,30.04,NW,314,9.2,9.2,75,0.00,CLR,,0.01,0.0,WeatherDisplay:10.37,2013-06-02 05:11:00,
2013-06-02 00:16:00,59.1,50.8,30.03,North,350,9.0,9.0,74,0.00,CLR,,0.01,0.0,WeatherDisplay:10.37,2013-06-02 05:16:00,
2013-06-02 00:21:00,59.0,50.7,30.03,NW,319,6.9,6.9,74,0.00,CLR,,0.01,0.0,WeatherDisplay:10.37,2013-06-02 05:21:00,
2013-06-02 00:26:00,58.9,50.6,30.03,NNW,344,5.8,5.8,74,0.00,CLR,,0.01,0.0,WeatherDisplay:10.37,2013-06-02 05:26:00,
2013-06-02 00:31:00,58.8,50.5,30.03,WNW,286,8.1,8.1,74,0.00,CLR,,0.01,0.0,WeatherDisplay:10.37,2013-06-02 05:31:00,
2013-06-02 00:36:00,58.6,50.3,30.03,NNW,346,6.9,6.9,74,0.00,CLR,,0.01,0.0,WeatherDisplay:10.37,2013-06-02 05:36:00,
2013-06-02 00:41:00,58.6,50.3,30.03,NNW,342,9.2,9.2,74,0.00,CLR,,0.01,0.0,WeatherDisplay:10.37,2013-06-02 05:41:00,
2013-06-02 00:46:00,58.4,50.5,30.04,NW,312,6.9,6.9,75,0.00,CLR,,0.01,0.0,WeatherDisplay:10.37,2013-06-02 05:46:00,
2013-06-02 00:51:00,58.3,50.4,30.04,NNW,327,4.0,4.0,75,0.00,CLR,,0.01,0.0,WeatherDisplay:10.37,2013-06-02 05:51:00,
2013-06-02 00:56:00,58.0,50.5,30.04,NW,326,5.8,5.8,76,0.00,CLR,,0.01,0.0,WeatherDisplay:10.37,2013-06-02 05:56:00,
2013-06-02 01:01:00,57.8,50.6,30.04,NNW,340,3.5,3.5,77,0.00,RA,,0.00,0.0,WeatherDisplay:10.37,2013-06-02 06:01:00,
2013-06-02 01:06:00,57.5,50.3,30.04,NW,322,6.9,6.9,77,0.00,CLR,,0.00,0.0,WeatherDisplay:10.37,2013-06-02 06:06:00,
2013-06-02 01:11:00,57.3,50.5,30.04,NW,313,5.8,5.8,78,0.00,CLR,,0.00,0.0,WeatherDisplay:10.37,2013-06-02 06:11:00,
2013-06-02 01:16:00,57.1,50.6,30.04,North,11,5.8,5.8,79,0.00,CLR,,0.00,0.0,WeatherDisplay:10.37,2013-06-02 06:16:00,
2013-06-02 01:21:00,56.8,50.4,30.04,NNW,328,4.6,4.6,79,0.00,CLR,,0.00,0.0,WeatherDisplay:10.37,2013-06-02 06:21:00,
2013-06-02 01:26:00,56.7,50.6,30.04,NNW,331,5.8,5.8,80,0.00,CLR,,0.00,0.0,WeatherDisplay:10.37,2013-06-02 06:26:00,
2013-06-02 01:31:00,56.5,50.4,30.04,NW,325,4.6,4.6,80,0.00,CLR,,0.00,0.0,WeatherDisplay:10.37,2013-06-02 06:31:00,
2013-06-02 01:36:00,56.3,50.5,30.04,NW,321,3.5,3.5,81,0.00,CLR,,0.00,0.0,WeatherDisplay:10.37,2013-06-02 06:36:00,
2013-06-02 01:41:00,56.1,50.3,30.04,WNW,302,3.5,3.5,81,0.00,CLR,,0.00,0.0,WeatherDisplay:10.37,2013-06-02 06:41:00,
2013-06-02 01:46:00,55.9,50.2,30.04,WNW,302,4.6,4.6,81,0.00,CLR,,0.00,0.0,WeatherDisplay:10.37,2013-06-02 06:46:00,
2013-06-02 01:51:00,55.7,50.3,30.04,NW,304,9.2,9.2,82,0.00,CLR,,0.00,0.0,WeatherDisplay:10.37,2013-06-02 06:51:00,
2013-06-02 01:56:00,55.6,50.2,30.04,NW,306,3.5,3.5,82,0.00,CLR,,0.00,0.0,WeatherDisplay:10.37,2013-06-02 06:56:00,
2013-06-02 02:01:00,55.4,50.0,30.04,WNW,286,6.0,6.0,82,0.00,CLR,,0.00,0.0,WeatherDisplay:10.37,2013-06-02 07:01:00,
2013-06-02 02:06:00,55.3,49.9,30.05,NW,319,3.5,3.5,82,0.00,CLR,,0.00,0.0,WeatherDisplay:10.37,2013-06-02 07:06:00,
2013-06-02 02:11:00,55.1,50.0,30.05,North,360,6.0,6.0,83,0.00,CLR,,0.00,0.0,WeatherDisplay:10.37,2013-06-02 07:11:00,
2013-06-02 02:16:00,55.2,49.8,30.05,WNW,297,8.1,8.1,82,0.00,CLR,,0.00,0.0,WeatherDisplay:10.37,2013-06-02 07:16:00,
2013-06-02 02:21:00,55.2,49.8,30.05,NW,325,8.1,8.1,82,0.00,CLR,,0.00,0.0,WeatherDisplay:10.37,2013-06-02 07:21:00,
2013-06-02 02:26:00,55.2,49.5,30.05,NW,310,5.8,5.8,81,0.00,CLR,,0.00,0.0,WeatherDisplay:10.37,2013-06-02 07:26:00,
2013-06-02 02:31:00,55.1,49.4,30.05,NNW,348,5.0,5.0,81,0.00,CLR,,0.00,0.0,WeatherDisplay:10.37,2013-06-02 07:31:00,
2013-06-02 02:36:00,55.1,49.4,30.05,NNW,335,5.8,5.8,81,0.00,CLR,,0.00,0.0,WeatherDisplay:10.37,2013-06-02 07:36:00,
2013-06-02 02:41:00,55.0,49.6,30.05,NNW,338,5.8,5.8,82,0.00,CLR,,0.00,0.0,WeatherDisplay:10.37,2013-06-02 07:41:00,
2013-06-02 02:46:00,54.9,49.2,30.05,NW,319,10.4,10.4,81,0.00,CLR,,0.00,0.0,WeatherDisplay:10.37,2013-06-02 07:46:00,
2013-06-02 02:51:00,54.9,49.2,30.05,NNE,32,8.1,8.1,81,0.00,CLR,,0.00,0.0,WeatherDisplay:10.37,2013-06-02 07:51:00,
2013-06-02 02:56:00,54.9,49.2,30.05,WNW,287,9.2,9.2,81,0.00,CLR,,0.00,0.0,WeatherDisplay:10.37,2013-06-02 07:56:00,
2013-06-02 03:01:00,54.8,49.1,30.05,NW,318,10.4,10.4,81,0.00,CLR,,0.00,0.0,WeatherDisplay:10.37,2013-06-02 08:01:00,
2013-06-02 03:06:00,54.8,49.1,30.05,NW,319,9.2,9.2,81,0.00,CLR,,0.00,0.0,WeatherDisplay:10.37,2013-06-02 08:06:00,
2013-06-02 03:11:00,54.7,49.0,30.05,WNW,294,11.5,11.5,81,0.00,CLR,,0.00,0.0,WeatherDisplay:10.37,2013-06-02 08:11:00,
2013-06-02 03:16:00,54.6,49.2,30.05,NW,319,6.9,6.9,82,0.00,CLR,,0.00,0.0,WeatherDisplay:10.37,2013-06-02 08:16:00,
2013-06-02 03:21:00,54.4,48.7,30.05,NW,306,8.1,8.1,81,0.00,CLR,,0.00,0.0,WeatherDisplay:10.37,2013-06-02 08:21:00,
2013-06-02 03:26:00,54.4,49.0,30.06,NNW,336,10.4,10.4,82,0.00,CLR,,0.00,0.0,WeatherDisplay:10.37,2013-06-02 08:26:00,
2013-06-02 03:31:00,54.2,48.8,30.06,WNW,296,11.5,11.5,82,0.00,CLR,,0.00,0.0,WeatherDisplay:10.37,2013-06-02 08:31:00,
2013-06-02 03:36:00,54.1,48.7,30.06,NW,326,8.1,8.1,82,0.00,CLR,,0.00,0.0,WeatherDisplay:10.37,2013-06-02 08:36:00,
2013-06-02 03:41:00,54.0,49.0,30.06,NW,325,10.4,10.4,83,0.00,CLR,,0.00,0.0,WeatherDisplay:10.37,2013-06-02 08:41:00,
2013-06-02 03:46:00,53.9,48.9,30.05,North,350,8.1,8.1,83,0.00,CLR,,0.00,0.0,WeatherDisplay:10.37,2013-06-02 08:46:00,
2013-06-02 03:51:00,53.8,48.8,30.04,NW,317,10.4,10.4,83,0.00,CLR,,0.00,0.0,WeatherDisplay:10.37,2013-06-02 08:51:00,
2013-06-02 03:56:00,53.7,48.7,30.04,NNW,332,11.5,11.5,83,0.00,CLR,,0.00,0.0,WeatherDisplay:10.37,2013-06-02 08:56:00,
2013-06-02 04:01:00,53.7,48.3,30.05,NNW,327,11.5,11.5,82,0.00,CLR,,0.00,0.0,WeatherDisplay:10.37,2013-06-02 09:01:00,
2013-06-02 04:06:00,53.8,48.4,30.05,North,5,6.9,6.9,82,0.00,CLR,,0.00,0.0,WeatherDisplay:10.37,2013-06-02 09:06:00,
2013-06-02 04:11:00,53.8,48.4,30.05,NNW,348,8.1,8.1,82,0.00,FEW,,0.00,0.0,WeatherDisplay:10.37,2013-06-02 09:11:00,
2013-06-02 04:16:00,53.7,48.0,30.05,North,355,10.4,10.4,81,0.00,FEW,,0.00,0.0,WeatherDisplay:10.37,2013-06-02 09:16:00,
2013-06-02 04:21:00,53.7,48.0,30.05,NW,314,11.5,11.5,81,0.00,FEW,,0.00,0.0,WeatherDisplay:10.37,2013-06-02 09:21:00,
2013-06-02 04:26:00,53.6,48.2,30.05,NNE,22,8.0,8.0,82,0.00,FEW,,0.00,0.0,WeatherDisplay:10.37,2013-06-02 09:26:00,
2013-06-02 04:31:00,53.5,48.1,30.06,NNW,345,9.2,9.2,82,0.00,FEW,,0.00,0.0,WeatherDisplay:10.37,2013-06-02 09:31:00,
2013-06-02 04:36:00,53.4,48.0,30.06,NNW,338,6.9,6.9,82,0.00,FEW,,0.00,0.0,WeatherDisplay:10.37,2013-06-02 09:36:00,
2013-06-02 04:41:00,53.2,48.2,30.06,WNW,302,6.9,6.9,83,0.00,FEW,,0.00,0.0,WeatherDisplay:10.37,2013-06-02 09:41:00,
2013-06-02 04:46:00,53.0,48.0,30.06,NW,312,4.6,4.6,83,0.00,FEW,,0.00,0.0,WeatherDisplay:10.37,2013-06-02 09:46:00,
2013-06-02 04:51:00,52.8,48.1,30.07,NNW,329,5.0,5.0,84,0.00,FEW,,0.00,0.0,WeatherDisplay:10.37,2013-06-02 09:51:00,
2013-06-02 04:56:00,52.6,48.2,30.07,NW,313,5.8,5.8,85,0.00,FEW,,0.00,0.0,WeatherDisplay:10.37,2013-06-02 09:56:00,
2013-06-02 05:01:00,52.4,48.0,30.08,NW,304,5.8,5.8,85,0.00,CLR,,0.00,0.0,WeatherDisplay:10.37,2013-06-02 10:01:00,
2013-06-02 05:06:00,52.2,48.1,30.08,NW,316,3.5,3.5,86,0.00,CLR,,0.00,0.0,WeatherDisplay:10.37,2013-06-02 10:06:00,
2013-06-02 05:11:00,52.0,47.9,30.08,NW,309,6.9,6.9,86,0.00,CLR,,0.00,0.0,WeatherDisplay:10.37,2013-06-02 10:11:00,
2013-06-02 05:16:00,51.9,47.8,30.08,NNW,333,4.6,4.6,86,0.00,CLR,,0.00,0.0,WeatherDisplay:10.37,2013-06-02 10:16:00,
2013-06-02 05:21:00,51.7,47.6,30.08,West,280,6.9,6.9,86,0.00,CLR,,0.00,0.0,WeatherDisplay:10.37,2013-06-02 10:21:00,
2013-06-02 05:26:00,51.6,47.9,30.08,West,268,4.6,4.6,87,0.00,CLR,,0.00,0.0,WeatherDisplay:10.37,2013-06-02 10:26:00,
2013-06-02 05:31:00,51.5,47.8,30.08,NNW,332,4.6,4.6,87,0.00,CLR,,0.00,0.0,WeatherDisplay:10.37,2013-06-02 10:31:00,
2013-06-02 05:36:00,51.4,47.7,30.09,NNW,342,5.8,5.8,87,0.00,CLR,,0.00,0.0,WeatherDisplay:10.37,2013-06-02 10:36:00,
2013-06-02 05:41:00,51.3,47.6,30.09,North,360,6.9,6.9,87,0.00,CLR,,0.00,0.0,WeatherDisplay:10.37,2013-06-02 10:41:00,
2013-06-02 05:46:00,51.2,47.5,30.09,NW,315,5.0,5.0,87,0.00,CLR,,0.00,0.0,WeatherDisplay:10.37,2013-06-02 10:46:00,
2013-06-02 05:51:00,51.1,47.7,30.09,NW,320,4.6,4.6,88,0.00,CLR,,0.00,0.0,WeatherDisplay:10.37,2013-06-02 10:51:00,
2013-06-02 05:56:00,51.0,47.6,30.09,WNW,294,4.6,4.6,88,0.00,CLR,,0.00,0.0,WeatherDisplay:10.37,2013-06-02 10:56:00,
2013-06-02 06:01:00,50.9,47.5,30.09,NNW,345,5.8,5.8,88,0.00,FEW,,0.00,0.0,WeatherDisplay:10.37,2013-06-02 11:01:00,
2013-06-02 06:06:00,50.9,47.5,30.10,NW,311,3.5,3.5,88,0.00,FEW,,0.00,0.0,WeatherDisplay:10.37,2013-06-02 11:06:00,
2013-06-02 06:11:00,50.9,47.5,30.10,NNW,338,9.2,9.2,88,0.00,FEW,,0.00,5.0,WeatherDisplay:10.37,2013-06-02 11:11:00,
2013-06-02 06:16:00,50.9,47.5,30.09,NW,317,6.0,6.0,88,0.00,FEW,,0.00,7.0,WeatherDisplay:10.37,2013-06-02 11:16:00,
2013-06-02 06:21:00,50.9,47.5,30.10,West,263,6.9,6.9,88,0.00,FEW,,0.00,9.0,WeatherDisplay:10.37,2013-06-02 11:21:00,
2013-06-02 06:26:00,50.8,47.4,30.09,WNW,293,6.0,6.0,88,0.00,FEW,,0.00,11.0,WeatherDisplay:10.37,2013-06-02 11:26:00,
2013-06-02 06:31:00,50.9,47.5,30.09,NNW,336,10.0,10.0,88,0.00,FEW,,0.00,12.0,WeatherDisplay:10.37,2013-06-02 11:31:00,
2013-06-02 06:36:00,50.9,47.5,30.09,North,350,10.4,10.4,88,0.00,FEW,,0.00,14.0,WeatherDisplay:10.37,2013-06-02 11:36:00,
2013-06-02 06:41:00,51.0,47.6,30.09,NW,311,11.5,11.5,88,0.00,FEW,,0.00,16.0,WeatherDisplay:10.37,2013-06-02 11:41:00,
2013-06-02 06:46:00,51.0,47.6,30.09,NW,322,9.2,9.2,88,0.00,FEW,,0.00,18.0,WeatherDisplay:10.37,2013-06-02 11:46:00,
2013-06-02 06:51:00,51.2,47.8,30.09,NNW,335,8.1,8.1,88,0.00,FEW,,0.00,19.0,WeatherDisplay:10.37,2013-06-02 11:51:00,
2013-06-02 06:56:00,51.3,47.6,30.09,NW,326,10.4,10.4,87,0.00,FEW,,0.00,26.0,WeatherDisplay:10.37,2013-06-02 11:56:00,
2013-06-02 07:01:00,51.4,47.7,30.09,NNW,329,4.6,4.6,87,0.00,FEW,,0.00,23.0,WeatherDisplay:10.37,2013-06-02 12:01:00,
2013-06-02 07:06:00,51.6,47.5,30.09,NNW,328,10.4,10.4,86,0.00,FEW,,0.00,25.0,WeatherDisplay:10.37,2013-06-02 12:06:00,
2013-06-02 07:11:00,51.8,47.7,30.10,NNW,333,6.9,6.9,86,0.00,CLR,,0.00,25.0,WeatherDisplay:10.37,2013-06-02 12:11:00,
2013-06-02 07:16:00,51.9,47.5,30.10,North,355,11.5,11.5,85,0.00,CLR,,0.00,26.0,WeatherDisplay:10.37,2013-06-02 12:16:00,
2013-06-02 07:21:00,52.1,47.7,30.10,WNW,301,6.9,6.9,85,0.00,CLR,,0.00,28.0,WeatherDisplay:10.37,2013-06-02 12:21:00,
2013-06-02 07:26:00,52.2,47.8,30.11,NNW,329,8.1,8.1,85,0.00,CLR,,0.00,39.0,WeatherDisplay:10.37,2013-06-02 12:26:00,
2013-06-02 07:31:00,52.4,47.7,30.11,NW,305,5.8,5.8,84,0.00,CLR,,0.00,93.0,WeatherDisplay:10.37,2013-06-02 12:31:00,
2013-06-02 07:36:00,52.7,48.3,30.11,WSW,250,6.9,6.9,85,0.00,CLR,,0.00,60.0,WeatherDisplay:10.37,2013-06-02 12:36:00,
2013-06-02 07:41:00,52.9,48.2,30.11,NNW,338,10.4,10.4,84,0.00,CLR,,0.00,33.0,WeatherDisplay:10.37,2013-06-02 12:41:00,
2013-06-02 07:46:00,53.0,48.3,30.11,WSW,252,9.2,9.2,84,0.00,CLR,,0.00,32.0,WeatherDisplay:10.37,2013-06-02 12:46:00,
2013-06-02 07:51:00,53.1,48.4,30.11,NNE,15,8.1,8.1,84,0.00,CLR,,0.00,49.0,WeatherDisplay:10.37,2013-06-02 12:51:00,
2013-06-02 07:56:00,53.3,48.6,30.11,NW,322,11.5,11.5,84,0.00,CLR,,0.00,37.0,WeatherDisplay:10.37,2013-06-02 12:56:00,
2013-06-02 08:01:00,53.4,48.4,30.11,WNW,294,9.2,9.2,83,0.00,CLR,,0.00,35.0,WeatherDisplay:10.37,2013-06-02 13:01:00,
2013-06-02 08:06:00,53.5,48.1,30.12,NNW,331,8.1,8.1,82,0.00,CLR,,0.00,42.0,WeatherDisplay:10.37,2013-06-02 13:06:00,
2013-06-02 08:11:00,53.7,48.3,30.11,WNW,296,11.5,11.5,82,0.00,FEW,,0.00,35.0,WeatherDisplay:10.37,2013-06-02 13:11:00,
2013-06-02 08:16:00,53.9,48.2,30.12,North,351,10.4,10.4,81,0.00,FEW,,0.00,37.0,WeatherDisplay:10.37,2013-06-02 13:16:00,
2013-06-02 08:21:00,54.2,48.5,30.12,NNW,338,9.2,9.2,81,0.00,FEW,,0.00,39.0,WeatherDisplay:10.37,2013-06-02 13:21:00,
2013-06-02 08:26:00,54.4,48.7,30.12,NNW,344,8.0,8.0,81,0.00,FEW,,0.00,42.0,WeatherDisplay:10.37,2013-06-02 13:26:00,
2013-06-02 08:31:00,54.5,48.5,30.12,West,269,8.1,8.1,80,0.00,FEW,,0.00,46.0,WeatherDisplay:10.37,2013-06-02 13:31:00,
2013-06-02 08:36:00,54.8,48.7,30.12,North,351,12.7,12.7,80,0.00,FEW,,0.00,53.0,WeatherDisplay:10.37,2013-06-02 13:36:00,
2013-06-02 08:41:00,55.0,48.3,30.12,NW,306,10.4,10.4,78,0.00,FEW,,0.00,56.0,WeatherDisplay:10.37,2013-06-02 13:41:00,
2013-06-02 08:46:00,55.3,48.6,30.12,NW,312,11.5,11.5,78,0.00,FEW,,0.00,58.0,WeatherDisplay:10.37,2013-06-02 13:46:00,
2013-06-02 08:51:00,55.7,48.2,30.12,NNW,346,10.4,10.4,76,0.00,FEW,,0.00,90.0,WeatherDisplay:10.37,2013-06-02 13:51:00,
2013-06-02 08:56:00,55.7,48.2,30.12,WNW,292,9.2,9.2,76,0.00,FEW,,0.00,107.0,WeatherDisplay:10.37,2013-06-02 13:56:00,
2013-06-02 09:01:00,56.0,48.5,30.12,NNE,23,11.5,11.5,76,0.00,FEW,,0.00,232.0,WeatherDisplay:10.37,2013-06-02 14:01:00,
2013-06-02 09:06:00,56.4,48.6,30.12,NNW,327,12.7,12.7,75,0.00,FEW,,0.00,199.0,WeatherDisplay:10.37,2013-06-02 14:06:00,
2013-06-02 09:11:00,56.7,48.9,30.12,NNW,327,8.1,8.1,75,0.00,FEW,,0.00,304.0,WeatherDisplay:10.37,2013-06-02 14:11:00,
2013-06-02 09:16:00,57.0,48.8,30.12,North,5,8.1,8.1,74,0.00,FEW,,0.00,84.0,WeatherDisplay:10.37,2013-06-02 14:16:00,
2013-06-02 09:21:00,57.3,48.7,30.12,NW,306,10.4,10.4,73,0.00,FEW,,0.00,200.0,WeatherDisplay:10.37,2013-06-02 14:21:00,
2013-06-02 09:26:00,57.4,49.2,30.12,ENE,63,13.8,13.8,74,0.00,FEW,,0.00,281.0,WeatherDisplay:10.37,2013-06-02 14:26:00,
2013-06-02 09:31:00,57.9,48.6,30.12,NW,309,15.0,15.0,71,0.00,FEW,,0.00,494.0,WeatherDisplay:10.37,2013-06-02 14:31:00,
2013-06-02 09:36:00,58.1,48.7,30.13,NW,325,9.2,9.2,71,0.00,FEW,,0.00,357.0,WeatherDisplay:10.37,2013-06-02 14:36:00,
2013-06-02 09:41:00,58.4,49.0,30.13,North,5,10.4,10.4,71,0.00,FEW,,0.00,84.0,WeatherDisplay:10.37,2013-06-02 14:41:00,
2013-06-02 09:46:00,58.4,48.7,30.12,NNW,335,13.8,13.8,70,0.00,FEW,,0.00,69.0,WeatherDisplay:10.37,2013-06-02 14:46:00,
2013-06-02 09:51:00,58.6,48.8,30.12,NNW,344,13.8,13.8,70,0.00,FEW,,0.00,176.0,WeatherDisplay:10.37,2013-06-02 14:51:00,
2013-06-02 09:56:00,58.8,49.0,30.12,NW,323,15.0,15.0,70,0.00,FEW,,0.00,90.0,WeatherDisplay:10.37,2013-06-02 14:56:00,
2013-06-02 10:01:00,59.3,48.7,30.12,NW,315,13.8,13.8,68,0.00,FEW,,0.00,520.0,WeatherDisplay:10.37,2013-06-02 15:01:00,
2013-06-02 10:06:00,59.7,49.1,30.13,NNE,17,9.2,9.2,68,0.00,FEW,,0.00,102.0,WeatherDisplay:10.37,2013-06-02 15:06:00,
2013-06-02 10:11:00,59.9,49.3,30.12,North,355,13.0,13.0,68,0.00,FEW,,0.00,104.0,WeatherDisplay:10.37,2013-06-02 15:11:00,
2013-06-02 10:16:00,60.0,49.0,30.12,North,9,11.5,11.5,67,0.00,FEW,,0.00,406.0,WeatherDisplay:10.37,2013-06-02 15:16:00,
2013-06-02 10:21:00,60.3,49.7,30.13,WNW,302,15.0,15.0,68,0.00,FEW,,0.00,679.0,WeatherDisplay:10.37,2013-06-02 15:21:00,
2013-06-02 10:26:00,60.5,49.5,30.12,NNE,13,5.8,5.8,67,0.00,FEW,,0.00,679.0,WeatherDisplay:10.37,2013-06-02 15:26:00,
2013-06-02 10:31:00,60.9,49.5,30.12,NNW,335,11.5,11.5,66,0.00,FEW,,0.00,640.0,WeatherDisplay:10.37,2013-06-02 15:31:00,
2013-06-02 10:36:00,61.0,49.1,30.12,NNW,332,10.4,10.4,65,0.00,FEW,,0.00,84.0,WeatherDisplay:10.37,2013-06-02 15:36:00,
2013-06-02 10:41:00,61.1,50.1,30.13,WNW,293,9.2,9.2,67,0.00,FEW,,0.00,128.0,WeatherDisplay:10.37,2013-06-02 15:41:00,
2013-06-02 10:46:00,61.3,49.0,30.13,NW,312,8.1,8.1,64,0.00,FEW,,0.00,139.0,WeatherDisplay:10.37,2013-06-02 15:46:00,
2013-06-02 10:51:00,61.6,48.9,30.12,NW,324,11.5,11.5,63,0.00,FEW,,0.00,172.0,WeatherDisplay:10.37,2013-06-02 15:51:00,
2013-06-02 10:56:00,61.7,49.0,30.12,NW,307,9.2,9.2,63,0.00,FEW,,0.00,90.0,WeatherDisplay:10.37,2013-06-02 15:56:00,
2013-06-02 11:01:00,62.0,48.8,30.12,North,360,11.5,11.5,62,0.00,FEW,,0.00,504.0,WeatherDisplay:10.37,2013-06-02 16:01:00,
2013-06-02 11:06:00,62.1,48.5,30.12,North,351,9.2,9.2,61,0.00,FEW,,0.00,81.0,WeatherDisplay:10.37,2013-06-02 16:06:00,
2013-06-02 11:11:00,62.3,48.7,30.13,NW,324,13.8,13.8,61,0.00,FEW,,0.00,90.0,WeatherDisplay:10.37,2013-06-02 16:11:00,
2013-06-02 11:16:00,62.2,49.0,30.12,West,275,10.4,10.4,62,0.00,FEW,,0.00,146.0,WeatherDisplay:10.37,2013-06-02 16:16:00,
2013-06-02 11:21:00,62.4,48.3,30.13,NNW,348,10.4,10.4,60,0.00,FEW,,0.00,197.0,WeatherDisplay:10.37,2013-06-02 16:21:00,
2013-06-02 11:26:00,62.3,48.2,30.12,NNW,344,15.0,15.0,60,0.00,FEW,,0.00,79.0,WeatherDisplay:10.37,2013-06-02 16:26:00,
2013-06-02 11:32:00,62.4,48.8,30.12,North,355,11.5,11.5,61,0.00,FEW,,0.00,185.0,WeatherDisplay:10.37,2013-06-02 16:32:00,
2013-06-02 11:37:00,62.8,48.7,30.12,NNW,331,10.4,10.4,60,0.00,FEW,,0.00,229.0,WeatherDisplay:10.37,2013-06-02 16:37:00,
2013-06-02 11:42:00,63.2,47.7,30.13,NNE,16,11.5,11.5,57,0.00,FEW,,0.00,197.0,WeatherDisplay:10.37,2013-06-02 16:42:00,
2013-06-02 11:47:00,63.4,48.8,30.13,NNE,19,10.4,10.4,59,0.00,FEW,,0.00,914.0,WeatherDisplay:10.37,2013-06-02 16:47:00,
2013-06-02 11:52:00,63.6,48.5,30.12,NNW,341,9.2,9.2,58,0.00,FEW,,0.00,925.0,WeatherDisplay:10.37,2013-06-02 16:52:00,
2013-06-02 11:57:00,64.0,49.4,30.12,North,11,11.5,11.5,59,0.00,FEW,,0.00,935.0,WeatherDisplay:10.37,2013-06-02 16:57:00,
2013-06-02 12:02:00,64.3,48.7,30.12,NNW,346,9.0,9.0,57,0.00,FEW,,0.00,949.0,WeatherDisplay:10.37,2013-06-02 17:02:00,
2013-06-02 12:07:00,64.4,48.8,30.12,NW,320,11.5,11.5,57,0.00,FEW,,0.00,962.0,WeatherDisplay:10.37,2013-06-02 17:07:00,
2013-06-02 12:12:00,64.5,48.4,30.11,North,360,10.4,10.4,56,0.00,SCT,,0.00,969.0,WeatherDisplay:10.37,2013-06-02 17:12:00,
2013-06-02 12:17:00,64.7,50.0,30.12,NW,313,11.5,11.5,59,0.00,SCT,,0.00,977.0,WeatherDisplay:10.37,2013-06-02 17:17:00,
2013-06-02 12:22:00,64.8,48.2,30.12,North,355,16.1,16.1,55,0.00,SCT,,0.00,984.0,WeatherDisplay:10.37,2013-06-02 17:22:00,
2013-06-02 12:27:00,64.8,49.2,30.12,NW,313,5.8,5.8,57,0.00,SCT,,0.00,984.0,WeatherDisplay:10.37,2013-06-02 17:27:00,
2013-06-02 12:32:00,65.0,48.9,30.11,NNE,16,7.0,7.0,56,0.00,SCT,,0.00,991.0,WeatherDisplay:10.37,2013-06-02 17:32:00,
2013-06-02 12:37:00,65.2,48.1,30.11,NNW,331,17.3,17.3,54,0.00,SCT,,0.00,984.0,WeatherDisplay:10.37,2013-06-02 17:37:00,
2013-06-02 12:42:00,65.6,49.0,30.12,NW,325,9.2,9.2,55,0.00,SCT,,0.00,991.0,WeatherDisplay:10.37,2013-06-02 17:42:00,
2013-06-02 12:47:00,65.6,48.5,30.11,NNE,30,9.2,9.2,54,0.00,SCT,,0.00,997.0,WeatherDisplay:10.37,2013-06-02 17:47:00,
2013-06-02 12:52:00,65.6,49.5,30.11,West,268,11.5,11.5,56,0.00,SCT,,0.00,1004.0,WeatherDisplay:10.37,2013-06-02 17:52:00,
2013-06-02 12:57:00,66.0,51.3,30.11,NW,319,6.9,6.9,59,0.00,SCT,,0.00,1004.0,WeatherDisplay:10.37,2013-06-02 17:57:00,
2013-06-02 13:02:00,66.5,49.3,30.11,NW,315,9.2,9.2,54,0.00,SCT,,0.00,1005.0,WeatherDisplay:10.37,2013-06-02 18:02:00,
2013-06-02 13:07:00,66.4,48.7,30.11,North,350,9.2,9.2,53,0.00,SCT,,0.00,1007.0,WeatherDisplay:10.37,2013-06-02 18:07:00,
2013-06-02 13:12:00,66.6,50.4,30.11,NNW,346,11.5,11.5,56,0.00,SCT,,0.00,1007.0,WeatherDisplay:10.37,2013-06-02 18:12:00,
2013-06-02 13:17:00,66.9,49.7,30.11,NNW,346,6.9,6.9,54,0.00,SCT,,0.00,1013.0,WeatherDisplay:10.37,2013-06-02 18:17:00,
2013-06-02 13:22:00,66.9,49.7,30.11,NW,320,10.0,10.0,54,0.00,SCT,,0.00,1016.0,WeatherDisplay:10.37,2013-06-02 18:22:00,
2013-06-02 13:27:00,66.9,49.2,30.11,NW,307,12.0,12.0,53,0.00,SCT,,0.00,1016.0,WeatherDisplay:10.37,2013-06-02 18:27:00,
2013-06-02 13:32:00,67.0,48.3,30.10,NW,307,6.9,6.9,51,0.00,SCT,,0.00,1016.0,WeatherDisplay:10.37,2013-06-02 18:32:00,
2013-06-02 13:37:00,67.6,48.8,30.10,North,355,6.9,6.9,51,0.00,SCT,,0.00,1016.0,WeatherDisplay:10.37,2013-06-02 18:37:00,
2013-06-02 13:42:00,67.7,49.4,30.09,NNW,327,6.9,6.9,52,0.00,SCT,,0.00,1014.0,WeatherDisplay:10.37,2013-06-02 18:42:00,
2013-06-02 13:47:00,67.5,48.2,30.09,WNW,294,13.8,13.8,50,0.00,SCT,,0.00,1018.0,WeatherDisplay:10.37,2013-06-02 18:47:00,
2013-06-02 13:52:00,67.4,49.2,30.09,NNE,24,9.2,9.2,52,0.00,SCT,,0.00,1016.0,WeatherDisplay:10.37,2013-06-02 18:52:00,
2013-06-02 13:57:00,67.4,50.2,30.09,NNW,335,10.0,10.0,54,0.00,SCT,,0.00,1013.0,WeatherDisplay:10.37,2013-06-02 18:57:00,
2013-06-02 14:02:00,67.5,49.3,30.09,NNE,24,8.1,8.1,52,0.00,SCT,,0.00,1009.0,WeatherDisplay:10.37,2013-06-02 19:02:00,
2013-06-02 14:07:00,67.7,49.4,30.08,North,355,8.1,8.1,52,0.00,SCT,,0.00,1009.0,WeatherDisplay:10.37,2013-06-02 19:07:00,
2013-06-02 14:12:00,68.1,51.3,30.08,NW,316,4.6,4.6,55,0.00,FEW,,0.00,1009.0,WeatherDisplay:10.37,2013-06-02 19:12:00,
2013-06-02 14:17:00,68.5,49.7,30.08,North,360,11.5,11.5,51,0.00,FEW,,0.00,1005.0,WeatherDisplay:10.37,2013-06-02 19:17:00,
2013-06-02 14:22:00,68.5,50.7,30.08,NNW,347,6.9,6.9,53,0.00,FEW,,0.00,1000.0,WeatherDisplay:10.37,2013-06-02 19:22:00,
2013-06-02 14:27:00,68.7,50.4,30.08,NNW,346,9.2,9.2,52,0.00,FEW,,0.00,997.0,WeatherDisplay:10.37,2013-06-02 19:27:00,
2013-06-02 14:32:00,68.9,48.4,30.08,NNW,333,10.4,10.4,48,0.00,FEW,,0.00,998.0,WeatherDisplay:10.37,2013-06-02 19:32:00,
2013-06-02 14:37:00,69.0,48.5,30.08,NNE,22,5.8,5.8,48,0.00,FEW,,0.00,990.0,WeatherDisplay:10.37,2013-06-02 19:37:00,
2013-06-02 14:42:00,69.1,49.1,30.08,NNE,15,11.5,11.5,49,0.00,FEW,,0.00,984.0,WeatherDisplay:10.37,2013-06-02 19:42:00,
2013-06-02 14:47:00,69.2,49.2,30.07,NNE,31,10.4,10.4,49,0.00,FEW,,0.00,979.0,WeatherDisplay:10.37,2013-06-02 19:47:00,
2013-06-02 14:52:00,69.1,48.6,30.07,NNW,341,9.2,9.2,48,0.00,FEW,,0.00,972.0,WeatherDisplay:10.37,2013-06-02 19:52:00,
2013-06-02 14:57:00,69.3,50.4,30.07,NNE,30,8.1,8.1,51,0.00,FEW,,0.00,965.0,WeatherDisplay:10.37,2013-06-02 19:57:00,
2013-06-02 15:02:00,69.2,49.2,30.07,NE,45,7.0,7.0,49,0.00,FEW,,0.00,960.0,WeatherDisplay:10.37,2013-06-02 20:02:00,
2013-06-02 15:07:00,69.5,50.0,30.07,NW,323,9.2,9.2,50,0.00,FEW,,0.00,951.0,WeatherDisplay:10.37,2013-06-02 20:07:00,
2013-06-02 15:12:00,69.7,51.3,30.07,NW,304,6.9,6.9,52,0.00,FEW,,0.00,944.0,WeatherDisplay:10.37,2013-06-02 20:12:00,
2013-06-02 15:17:00,69.8,50.3,30.06,ENE,63,6.9,6.9,50,0.00,FEW,,0.00,939.0,WeatherDisplay:10.37,2013-06-02 20:17:00,
2013-06-02 15:22:00,69.7,49.7,30.06,NE,46,5.8,5.8,49,0.00,FEW,,0.00,932.0,WeatherDisplay:10.37,2013-06-02 20:22:00,
2013-06-02 15:27:00,69.6,51.2,30.06,NE,43,5.0,5.0,52,0.00,FEW,,0.00,925.0,WeatherDisplay:10.37,2013-06-02 20:27:00,
2013-06-02 15:32:00,69.7,50.8,30.06,ENE,78,3.5,3.5,51,0.00,FEW,,0.00,916.0,WeatherDisplay:10.37,2013-06-02 20:32:00,
2013-06-02 15:37:00,69.7,51.3,30.05,North,5,10.4,10.4,52,0.00,FEW,,0.00,907.0,WeatherDisplay:10.37,2013-06-02 20:37:00,
2013-06-02 15:42:00,69.9,52.0,30.05,North,355,8.1,8.1,53,0.00,FEW,,0.00,900.0,WeatherDisplay:10.37,2013-06-02 20:42:00,
2013-06-02 15:47:00,70.1,48.4,30.05,North,360,5.8,5.8,46,0.00,FEW,,0.00,891.0,WeatherDisplay:10.37,2013-06-02 20:47:00,
2013-06-02 15:52:00,70.0,49.4,30.05,WNW,303,9.0,9.0,48,0.00,FEW,,0.00,879.0,WeatherDisplay:10.37,2013-06-02 20:52:00,
2013-06-02 15:57:00,70.4,49.2,30.04,NNW,332,2.3,2.3,47,0.00,FEW,,0.00,868.0,WeatherDisplay:10.37,2013-06-02 20:57:00,
2013-06-02 16:02:00,70.6,51.1,30.04,NNE,31,10.4,10.4,50,0.00,FEW,,0.00,860.0,WeatherDisplay:10.37,2013-06-02 21:02:00,
2013-06-02 16:07:00,70.8,50.7,30.04,NNE,22,6.0,6.0,49,0.00,FEW,,0.00,846.0,WeatherDisplay:10.37,2013-06-02 21:07:00,
2013-06-02 16:12:00,71.1,54.1,30.04,ENE,71,3.5,3.5,55,0.00,FEW,,0.00,833.0,WeatherDisplay:10.37,2013-06-02 21:12:00,
2013-06-02 16:17:00,71.2,49.4,30.03,NW,313,9.2,9.2,46,0.00,FEW,,0.00,821.0,WeatherDisplay:10.37,2013-06-02 21:17:00,
2013-06-02 16:22:00,71.0,49.2,30.03,ENE,63,5.8,5.8,46,0.00,FEW,,0.00,810.0,WeatherDisplay:10.37,2013-06-02 21:22:00,
2013-06-02 16:27:00,70.9,50.8,30.03,NW,321,5.8,5.8,49,0.00,FEW,,0.00,800.0,WeatherDisplay:10.37,2013-06-02 21:27:00,
2013-06-02 16:32:00,70.9,50.2,30.03,NE,34,6.9,6.9,48,0.00,FEW,,0.00,791.0,WeatherDisplay:10.37,2013-06-02 21:32:00,
2013-06-02 16:37:00,70.9,51.3,30.02,NNW,343,6.9,6.9,50,0.00,FEW,,0.00,773.0,WeatherDisplay:10.37,2013-06-02 21:37:00,
2013-06-02 16:42:00,71.0,48.0,30.02,ENE,77,3.5,3.5,44,0.00,FEW,,0.00,761.0,WeatherDisplay:10.37,2013-06-02 21:42:00,
2013-06-02 16:47:00,71.2,50.5,30.02,NNW,335,5.8,5.8,48,0.00,FEW,,0.00,749.0,WeatherDisplay:10.37,2013-06-02 21:47:00,
2013-06-02 16:52:00,71.1,48.1,30.02,NNE,18,5.8,5.8,44,0.00,FEW,,0.00,735.0,WeatherDisplay:10.37,2013-06-02 21:52:00,
2013-06-02 16:57:00,71.2,48.2,30.01,NW,322,4.6,4.6,44,0.00,FEW,,0.00,719.0,WeatherDisplay:10.37,2013-06-02 21:57:00,
2013-06-02 17:02:00,71.4,50.7,30.01,ESE,103,2.3,2.3,48,0.00,FEW,,0.00,705.0,WeatherDisplay:10.37,2013-06-02 22:02:00,
2013-06-02 17:07:00,71.3,48.9,30.01,ENE,57,8.1,8.1,45,0.00,FEW,,0.00,693.0,WeatherDisplay:10.37,2013-06-02 22:07:00,
2013-06-02 17:12:00,71.4,50.1,30.01,NE,40,5.8,5.8,47,0.00,FEW,,0.00,677.0,WeatherDisplay:10.37,2013-06-02 22:12:00,
2013-06-02 17:17:00,71.2,51.1,30.00,NE,53,5.8,5.8,49,0.00,FEW,,0.00,664.0,WeatherDisplay:10.37,2013-06-02 22:17:00,
2013-06-02 17:22:00,70.9,50.8,30.00,NNE,22,5.0,5.0,49,0.00,FEW,,0.00,647.0,WeatherDisplay:10.37,2013-06-02 22:22:00,
2013-06-02 17:27:00,71.1,51.5,30.00,NE,53,4.0,4.0,50,0.00,FEW,,0.00,631.0,WeatherDisplay:10.37,2013-06-02 22:27:00,
2013-06-02 17:32:00,71.3,50.0,30.00,ESE,104,2.3,2.3,47,0.00,FEW,,0.00,615.0,WeatherDisplay:10.37,2013-06-02 22:32:00,
2013-06-02 17:37:00,71.2,50.5,30.00,ENE,59,1.2,1.4,48,0.00,FEW,,0.00,599.0,WeatherDisplay:10.37,2013-06-02 22:37:00,
2013-06-02 17:42:00,71.1,49.8,30.00,East,83,4.6,4.6,47,0.00,FEW,,0.00,584.0,WeatherDisplay:10.37,2013-06-02 22:42:00,
2013-06-02 17:47:00,71.0,50.9,30.00,ENE,59,3.5,3.5,49,0.00,FEW,,0.00,568.0,WeatherDisplay:10.37,2013-06-02 22:47:00,
2013-06-02 17:52:00,71.1,53.6,30.00,ENE,65,5.0,5.0,54,0.00,FEW,,0.00,550.0,WeatherDisplay:10.37,2013-06-02 22:52:00,
2013-06-02 17:57:00,71.1,51.0,29.99,East,81,3.5,3.5,49,0.00,FEW,,0.00,446.0,WeatherDisplay:10.37,2013-06-02 22:57:00,
2013-06-02 18:02:00,71.0,49.2,29.99,NE,42,4.6,4.6,46,0.00,FEW,,0.00,67.0,WeatherDisplay:10.37,2013-06-02 23:02:00,
2013-06-02 18:07:00,71.0,50.9,29.99,ESE,114,4.6,4.6,49,0.00,FEW,,0.00,67.0,WeatherDisplay:10.37,2013-06-02 23:07:00,
2013-06-02 18:12:00,70.9,50.2,29.99,NE,41,3.5,3.5,48,0.00,FEW,,0.00,65.0,WeatherDisplay:10.37,2013-06-02 23:12:00,
2013-06-02 18:17:00,70.7,50.6,29.99,East,92,2.3,2.3,49,0.00,FEW,,0.00,65.0,WeatherDisplay:10.37,2013-06-02 23:17:00,
2013-06-02 18:22:00,70.5,49.9,29.99,East,101,3.5,3.5,48,0.00,FEW,,0.00,63.0,WeatherDisplay:10.37,2013-06-02 23:22:00,
2013-06-02 18:27:00,70.4,49.8,29.99,East,88,4.6,4.6,48,0.00,FEW,,0.00,63.0,WeatherDisplay:10.37,2013-06-02 23:27:00,
2013-06-02 18:32:00,70.2,49.6,29.98,ESE,107,2.3,2.3,48,0.00,FEW,,0.00,62.0,WeatherDisplay:10.37,2013-06-02 23:32:00,
2013-06-02 18:37:00,70.2,50.7,29.98,ENE,65,1.0,1.0,50,0.00,FEW,,0.00,62.0,WeatherDisplay:10.37,2013-06-02 23:37:00,
2013-06-02 18:42:00,70.1,50.0,29.98,NE,54,2.3,2.3,49,0.00,FEW,,0.00,60.0,WeatherDisplay:10.37,2013-06-02 23:42:00,
2013-06-02 18:47:00,70.0,50.0,29.99,ENE,67,3.5,3.5,49,0.00,FEW,,0.00,58.0,WeatherDisplay:10.37,2013-06-02 23:47:00,
2013-06-02 18:52:00,69.9,49.9,29.99,North,355,3.0,3.0,49,0.00,FEW,,0.00,58.0,WeatherDisplay:10.37,2013-06-02 23:52:00,
2013-06-02 18:57:00,69.9,49.9,29.99,North,355,1.2,1.2,49,0.00,FEW,,0.00,56.0,WeatherDisplay:10.37,2013-06-02 23:57:00,
2013-06-02 19:02:00,69.8,50.9,29.98,ENE,58,4.6,4.6,51,0.00,FEW,,0.00,56.0,WeatherDisplay:10.37,2013-06-03 00:02:00,
2013-06-02 19:07:00,69.7,51.3,29.99,ENE,65,2.3,0.0,52,0.00,FEW,,0.00,54.0,WeatherDisplay:10.37,2013-06-03 00:07:00,
2013-06-02 19:12:00,69.7,49.7,29.99,NE,46,1.2,1.2,49,0.00,FEW,,0.00,53.0,WeatherDisplay:10.37,2013-06-03 00:12:00,
2013-06-02 19:17:00,69.5,51.1,29.99,NE,36,2.3,2.3,52,0.00,FEW,,0.00,53.0,WeatherDisplay:10.37,2013-06-03 00:17:00,
2013-06-02 19:22:00,69.4,50.5,29.99,NE,37,1.0,1.0,51,0.00,FEW,,0.00,51.0,WeatherDisplay:10.37,2013-06-03 00:22:00,
2013-06-02 19:27:00,69.3,49.9,29.99,NE,36,0.0,0.0,50,0.00,FEW,,0.00,49.0,WeatherDisplay:10.37,2013-06-03 00:27:00,
2013-06-02 19:32:00,69.2,50.3,29.99,NE,37,1.0,1.0,51,0.00,FEW,,0.00,47.0,WeatherDisplay:10.37,2013-06-03 00:32:00,
2013-06-02 19:37:00,69.1,49.1,29.99,ESE,105,1.2,1.2,49,0.00,FEW,,0.00,46.0,WeatherDisplay:10.37,2013-06-03 00:37:00,
2013-06-02 19:42:00,69.0,49.6,29.99,ESE,105,0.0,0.0,50,0.00,FEW,,0.00,44.0,WeatherDisplay:10.37,2013-06-03 00:42:00,
2013-06-02 19:47:00,68.8,49.4,29.99,ESE,109,3.0,3.0,50,0.00,FEW,,0.00,42.0,WeatherDisplay:10.37,2013-06-03 00:47:00,
2013-06-02 19:52:00,68.6,49.2,29.99,ENE,66,2.3,2.3,50,0.00,FEW,,0.00,40.0,WeatherDisplay:10.37,2013-06-03 00:52:00,
2013-06-02 19:57:00,68.3,48.9,29.99,NNE,21,1.2,1.2,50,0.00,FEW,,0.00,39.0,WeatherDisplay:10.37,2013-06-03 00:57:00,
2013-06-02 20:02:00,68.1,48.2,30.00,North,11,3.5,3.5,49,0.00,FEW,,0.00,35.0,WeatherDisplay:10.37,2013-06-03 01:02:00,
2013-06-02 20:07:00,67.9,48.0,30.00,NNE,23,3.5,3.5,49,0.00,FEW,,0.00,32.0,WeatherDisplay:10.37,2013-06-03 01:07:00,
2013-06-02 20:12:00,67.7,49.4,30.00,NNE,15,0.0,0.0,52,0.00,FEW,,0.00,28.0,WeatherDisplay:10.37,2013-06-03 01:12:00,
2013-06-02 20:17:00,67.5,49.3,30.00,NNE,15,0.0,0.0,52,0.00,FEW,,0.00,25.0,WeatherDisplay:10.37,2013-06-03 01:17:00,
2013-06-02 20:22:00,67.2,49.5,30.00,NNE,15,0.0,0.0,53,0.00,FEW,,0.00,21.0,WeatherDisplay:10.37,2013-06-03 01:22:00,
2013-06-02 20:27:00,66.8,49.6,30.00,NNE,15,0.0,0.0,54,0.00,FEW,,0.00,18.0,WeatherDisplay:10.37,2013-06-03 01:27:00,
2013-06-02 20:32:00,66.5,49.8,30.00,NNE,15,0.0,0.0,55,0.00,FEW,,0.00,14.0,WeatherDisplay:10.37,2013-06-03 01:32:00,
2013-06-02 20:37:00,66.1,50.4,30.00,NNE,15,0.0,0.0,57,0.00,FEW,,0.00,9.0,WeatherDisplay:10.37,2013-06-03 01:37:00,
2013-06-02 20:42:00,65.8,50.1,30.00,NNE,15,0.0,0.0,57,0.00,FEW,,0.00,5.0,WeatherDisplay:10.37,2013-06-03 01:42:00,
2013-06-02 20:47:00,65.3,49.7,30.00,NNE,15,0.0,0.0,57,0.00,FEW,,0.00,0.0,WeatherDisplay:10.37,2013-06-03 01:47:00,
2013-06-02 20:52:00,64.9,49.8,30.00,NNE,15,0.0,0.0,58,0.00,FEW,,0.00,0.0,WeatherDisplay:10.37,2013-06-03 01:52:00,
2013-06-02 20:57:00,64.4,49.8,30.00,NNE,15,0.0,0.0,59,0.00,FEW,,0.00,0.0,WeatherDisplay:10.37,2013-06-03 01:57:00,
2013-06-02 21:02:00,64.0,49.8,29.99,NNE,15,0.0,0.0,60,0.00,FEW,,0.00,0.0,WeatherDisplay:10.37,2013-06-03 02:02:00,
2013-06-02 21:07:00,63.5,49.8,29.99,NNE,15,0.0,0.0,61,0.00,FEW,,0.00,0.0,WeatherDisplay:10.37,2013-06-03 02:07:00,
2013-06-02 21:12:00,63.1,50.3,29.99,NNE,15,0.0,0.0,63,0.00,FEW,,0.00,0.0,WeatherDisplay:10.37,2013-06-03 02:12:00,
2013-06-02 21:17:00,62.7,49.9,29.99,NNE,15,0.0,0.0,63,0.00,FEW,,0.00,0.0,WeatherDisplay:10.37,2013-06-03 02:17:00,
2013-06-02 21:22:00,62.3,50.4,30.00,NNE,15,0.0,0.0,65,0.00,FEW,,0.00,0.0,WeatherDisplay:10.37,2013-06-03 02:22:00,
2013-06-02 21:27:00,61.8,50.3,30.00,NNE,15,0.0,0.0,66,0.00,FEW,,0.00,0.0,WeatherDisplay:10.37,2013-06-03 02:27:00,
2013-06-02 21:32:00,61.4,50.3,30.00,NNE,15,0.0,0.0,67,0.00,FEW,,0.00,0.0,WeatherDisplay:10.37,2013-06-03 02:32:00,
2013-06-02 21:37:00,61.1,50.8,30.00,NNE,15,0.0,0.0,69,0.00,FEW,,0.00,0.0,WeatherDisplay:10.37,2013-06-03 02:37:00,
2013-06-02 21:42:00,60.7,50.5,30.00,NNE,15,0.0,0.0,69,0.00,FEW,,0.00,0.0,WeatherDisplay:10.37,2013-06-03 02:42:00,
2013-06-02 21:47:00,60.4,51.0,30.00,NNE,15,0.0,0.0,71,0.00,FEW,,0.00,0.0,WeatherDisplay:10.37,2013-06-03 02:47:00,
2013-06-02 21:52:00,60.0,50.9,30.00,NNE,15,0.0,0.0,72,0.00,FEW,,0.00,0.0,WeatherDisplay:10.37,2013-06-03 02:52:00,
2013-06-02 21:57:00,59.7,50.7,30.00,NNE,15,0.0,0.0,72,0.00,FEW,,0.00,0.0,WeatherDisplay:10.37,2013-06-03 02:57:00,
2013-06-02 22:02:00,59.4,50.4,30.00,NNE,15,0.0,0.0,72,0.00,FEW,,0.00,0.0,WeatherDisplay:10.37,2013-06-03 03:02:00,
2013-06-02 22:07:00,59.1,50.5,30.00,NNE,15,0.0,0.0,73,0.00,FEW,,0.00,0.0,WeatherDisplay:10.37,2013-06-03 03:07:00,
2013-06-02 22:12:00,58.9,50.3,30.00,NNE,15,0.0,0.0,73,0.00,FEW,,0.00,0.0,WeatherDisplay:10.37,2013-06-03 03:12:00,
2013-06-02 22:17:00,58.6,50.7,30.00,NNE,15,0.0,0.0,75,0.00,FEW,,0.00,0.0,WeatherDisplay:10.37,2013-06-03 03:17:00,
2013-06-02 22:22:00,58.3,50.8,30.00,NNE,15,0.0,0.0,76,0.00,FEW,,0.00,0.0,WeatherDisplay:10.37,2013-06-03 03:22:00,
2013-06-02 22:27:00,58.1,50.9,29.99,NNE,15,0.0,0.0,77,0.00,FEW,,0.00,0.0,WeatherDisplay:10.37,2013-06-03 03:27:00,
2013-06-02 22:32:00,57.8,50.6,30.00,NNE,15,0.0,0.0,77,0.00,FEW,,0.00,0.0,WeatherDisplay:10.37,2013-06-03 03:32:00,
2013-06-02 22:37:00,57.7,51.2,30.00,NNE,15,0.0,0.0,79,0.00,FEW,,0.00,0.0,WeatherDisplay:10.37,2013-06-03 03:37:00,
2013-06-02 22:42:00,57.4,50.9,30.00,NNE,15,0.0,0.0,79,0.00,FEW,,0.00,0.0,WeatherDisplay:10.37,2013-06-03 03:42:00,
2013-06-02 22:47:00,57.2,50.7,30.00,NNE,15,0.0,0.0,79,0.00,FEW,,0.00,0.0,WeatherDisplay:10.37,2013-06-03 03:47:00,
2013-06-02 22:52:00,56.9,50.8,30.00,NNE,15,0.0,0.0,80,0.00,FEW,,0.00,0.0,WeatherDisplay:10.37,2013-06-03 03:52:00,
2013-06-02 22:57:00,56.7,50.9,29.99,NNE,15,0.0,0.0,81,0.00,FEW,,0.00,0.0,WeatherDisplay:10.37,2013-06-03 03:57:00,
2013-06-02 23:01:00,56.6,50.8,29.99,NNE,15,0.0,0.0,81,0.00,FEW,,0.00,0.0,WeatherDisplay:10.37,2013-06-03 04:01:00,
2013-06-02 23:06:00,56.4,50.6,30.00,NNE,15,0.0,0.0,81,0.00,FEW,,0.00,0.0,WeatherDisplay:10.37,2013-06-03 04:06:00,
2013-06-02 23:11:00,56.2,50.8,29.99,NNE,15,0.0,0.0,82,0.00,CLR,,0.00,0.0,WeatherDisplay:10.37,2013-06-03 04:11:00,
2013-06-02 23:16:00,56.4,51.0,29.99,NNE,19,1.2,0.0,82,0.00,CLR,,0.00,0.0,WeatherDisplay:10.37,2013-06-03 04:16:00,
2013-06-02 23:21:00,57.3,51.2,29.99,NNE,19,1.2,1.2,80,0.00,CLR,,0.00,0.0,WeatherDisplay:10.37,2013-06-03 04:21:00,
2013-06-02 23:26:00,58.1,51.6,29.99,NNE,20,1.2,1.2,79,0.00,CLR,,0.00,0.0,WeatherDisplay:10.37,2013-06-03 04:26:00,
2013-06-02 23:32:00,58.8,51.6,29.99,NE,43,2.3,2.3,77,0.00,CLR,,0.00,0.0,WeatherDisplay:10.37,2013-06-03 04:32:00,
2013-06-02 23:37:00,59.2,51.6,29.99,East,100,2.3,2.3,76,0.00,CLR,,0.00,0.0,WeatherDisplay:10.37,2013-06-03 04:37:00,
2013-06-02 23:42:00,59.6,51.7,29.99,ESE,111,1.2,0.0,75,0.00,CLR,,0.00,0.0,WeatherDisplay:10.37,2013-06-03 04:42:00,
2013-06-02 23:47:00,59.8,51.9,29.99,ESE,111,2.3,2.3,75,0.00,CLR,,0.00,0.0,WeatherDisplay:10.37,2013-06-03 04:47:00,
2013-06-02 23:52:00,59.9,52.0,29.99,ESE,111,1.2,1.2,75,0.00,CLR,,0.00,0.0,WeatherDisplay:10.37,2013-06-03 04:52:00,
2013-06-02 23:57:00,59.9,52.0,29.99,SE,138,2.3,2.3,75,0.00,CLR,,0.00,0.0,WeatherDisplay:10.37,2013-06-03 04:57:00,